Time;durP1;ratioP1;P1;durP2;ratioP2;P2;SDS_P1;SDS_P2;PMS_P1;PMS_P2;Temp;Humidity;BMP_temperature;BMP_pressure;BME280_temperature;BME280_humidity;BME280_pressure;Samples;Min_cycle;Max_cycle;Signal;HPM_P1;HPM_P2
2023/08/10 00:01:51;;;;;;;;;;;25.40;65.60;;;;;;5043456;28;42930;-81
2023/08/10 00:04:17;;;;;;;;;;;25.40;65.80;;;;;;5042764;28;42899;-91
2023/08/10 00:06:42;;;;;;;;;;;25.40;66.00;;;;;;5043883;28;42980;-93
2023/08/10 00:09:08;;;;;;;;;;;25.20;66.10;;;;;;5044548;28;43524;-88
2023/08/10 00:11:34;;;;;;;;;;;25.30;66.00;;;;;;5044126;28;43088;-85
2023/08/10 00:13:59;;;;;;;;;;;25.30;65.80;;;;;;5044383;28;43039;-91
2023/08/10 00:16:25;;;;;;;;;;;25.50;66.30;;;;;;5044081;28;42941;-94
2023/08/10 00:18:50;;;;;;;;;;;25.10;65.70;;;;;;5044427;28;43531;-92
2023/08/10 00:21:16;;;;;;;;;;;25.40;66.00;;;;;;5043907;28;42960;-92
2023/08/10 00:23:42;;;;;;;;;;;25.50;66.20;;;;;;5043773;28;43805;-81
2023/08/10 00:26:08;;;;;;;;;;;25.30;66.00;;;;;;5043527;28;42888;-81
2023/08/10 00:28:33;;;;;;;;;;;25.30;66.00;;;;;;5051637;28;42802;-91
2023/08/10 00:30:59;;;;;;;;;;;25.40;66.10;;;;;;5048414;28;42923;-89
2023/08/10 00:33:25;;;;;;;;;;;25.30;66.60;;;;;;5043645;28;43004;-80
2023/08/10 00:35:50;;;;;;;;;;;25.40;66.20;;;;;;5044078;28;42912;-93
2023/08/10 00:38:16;;;;;;;;;;;25.30;66.30;;;;;;5026072;28;43474;-91
2023/08/10 00:40:41;;;;;;;;;;;25.30;66.20;;;;;;5043726;28;42880;-83
2023/08/10 00:43:07;;;;;;;;;;;25.30;66.10;;;;;;5025612;28;42964;-93
2023/08/10 00:45:32;;;;;;;;;;;25.30;66.30;;;;;;5043552;28;43046;-85
2023/08/10 00:47:58;;;;;;;;;;;25.30;66.40;;;;;;5042892;28;43992;-93
2023/08/10 00:50:24;;;;;;;;;;;25.10;66.30;;;;;;5043829;28;42755;-86
2023/08/10 00:52:50;;;;;;;;;;;25.40;66.70;;;;;;4975453;28;1854869;-89
2023/08/10 00:55:16;;;;;;;;;;;24.80;66.10;;;;;;5044294;28;42941;-88
2023/08/10 00:57:41;;;;;;;;;;;25.40;66.80;;;;;;5044275;28;43867;-87
2023/08/10 01:00:10;;;;;;;;;;;25.10;66.40;;;;;;5044225;28;43117;-87
2023/08/10 01:02:37;;;;;;;;;;;25.30;66.10;;;;;;5044629;28;44349;-91
2023/08/10 01:05:03;;;;;;;;;;;25.20;66.50;;;;;;5045045;28;42940;-80
2023/08/10 01:07:28;;;;;;;;;;;25.30;66.40;;;;;;5044362;28;44186;-89
2023/08/10 01:10:14;;;;;;;;;;;25.40;66.70;;;;;;5043866;28;42949;-79
2023/08/10 01:12:51;;;;;;;;;;;25.30;64.70;;;;;;5043991;28;44022;-92
2023/08/10 01:15:29;;;;;;;;;;;25.20;64.70;;;;;;5024972;28;42953;-91
2023/08/10 01:17:56;;;;;;;;;;;25.30;66.80;;;;;;5043903;28;42964;-89
2023/08/10 01:20:23;;;;;;;;;;;25.20;66.90;;;;;;5043872;28;42979;-93
2023/08/10 01:22:55;;;;;;;;;;;25.20;66.80;;;;;;5043768;28;43446;-87
2023/08/10 01:25:21;;;;;;;;;;;25.30;64.80;;;;;;5043643;28;43773;-85
2023/08/10 01:27:47;;;;;;;;;;;25.40;67.10;;;;;;5043830;28;43039;-94
2023/08/10 01:30:12;;;;;;;;;;;25.50;66.90;;;;;;5043678;28;42914;-89
2023/08/10 01:32:38;;;;;;;;;;;25.40;66.50;;;;;;5043253;28;43369;-90
2023/08/10 01:35:06;;;;;;;;;;;25.30;66.50;;;;;;5044338;28;43015;-81
2023/08/10 01:37:35;;;;;;;;;;;25.60;66.40;;;;;;5043503;28;44078;-87
2023/08/10 01:40:01;;;;;;;;;;;25.20;66.70;;;;;;5044021;28;43094;-90
2023/08/10 01:42:26;;;;;;;;;;;25.40;67.30;;;;;;5044264;28;43024;-83
2023/08/10 01:44:52;;;;;;;;;;;25.40;67.20;;;;;;5034132;28;43138;-93
2023/08/10 01:47:17;;;;;;;;;;;25.30;67.10;;;;;;5043329;28;43555;-93
2023/08/10 01:49:44;;;;;;;;;;;25.50;67.00;;;;;;5043786;28;42975;-84
2023/08/10 01:52:10;;;;;;;;;;;25.50;67.40;;;;;;5041951;28;43718;-93
2023/08/10 01:54:37;;;;;;;;;;;25.50;67.30;;;;;;5043491;28;43174;-91
2023/08/10 01:57:02;;;;;;;;;;;25.40;67.20;;;;;;5043328;28;42981;-91
2023/08/10 01:59:28;;;;;;;;;;;25.40;67.00;;;;;;5042613;28;43159;-92
2023/08/10 02:01:54;;;;;;;;;;;25.40;67.20;;;;;;5043146;28;42970;-89
2023/08/10 02:04:20;;;;;;;;;;;25.40;67.30;;;;;;5042332;28;42963;-94
2023/08/10 02:06:45;;;;;;;;;;;25.30;67.10;;;;;;5042764;28;43435;-93
2023/08/10 02:09:11;;;;;;;;;;;25.30;66.90;;;;;;5043402;28;43075;-80
2023/08/10 02:11:37;;;;;;;;;;;25.30;67.00;;;;;;5042339;28;42944;-80
2023/08/10 02:14:02;;;;;;;;;;;25.30;67.10;;;;;;5043194;28;42960;-94
2023/08/10 02:16:28;;;;;;;;;;;25.40;67.00;;;;;;5042618;28;43027;-92
2023/08/10 02:18:53;;;;;;;;;;;25.30;67.10;;;;;;5042835;28;43043;-93
2023/08/10 02:21:19;;;;;;;;;;;25.30;66.80;;;;;;5024680;28;45167;-86
2023/08/10 02:23:44;;;;;;;;;;;25.40;67.50;;;;;;5042988;28;42950;-93
2023/08/10 02:26:10;;;;;;;;;;;25.40;67.60;;;;;;5043706;28;42999;-91
2023/08/10 02:28:35;;;;;;;;;;;25.40;67.60;;;;;;5046715;28;42976;-88
2023/08/10 02:31:02;;;;;;;;;;;25.40;66.90;;;;;;5045452;28;43582;-84
2023/08/10 02:33:27;;;;;;;;;;;25.30;67.70;;;;;;5028509;28;43601;-79
2023/08/10 02:35:53;;;;;;;;;;;25.30;67.60;;;;;;5046470;28;43468;-94
2023/08/10 02:38:18;;;;;;;;;;;25.30;67.80;;;;;;5046248;28;43434;-84
2023/08/10 02:40:44;;;;;;;;;;;25.40;67.80;;;;;;5046425;28;43126;-91
2023/08/10 02:43:09;;;;;;;;;;;25.20;67.90;;;;;;5045902;28;42928;-92
2023/08/10 02:45:35;;;;;;;;;;;25.60;68.20;;;;;;5046034;28;42988;-82
2023/08/10 02:48:00;;;;;;;;;;;25.20;68.50;;;;;;5046127;28;43256;-89
2023/08/10 02:50:26;;;;;;;;;;;25.20;68.60;;;;;;5045868;28;42978;-90
2023/08/10 02:52:51;;;;;;;;;;;25.50;69.20;;;;;;5027633;28;43175;-89
2023/08/10 02:55:17;;;;;;;;;;;25.50;69.30;;;;;;5045561;28;43712;-87
2023/08/10 02:57:42;;;;;;;;;;;25.50;68.60;;;;;;5045894;28;43155;-89
2023/08/10 03:00:12;;;;;;;;;;;25.40;68.20;;;;;;5042362;28;43820;-80
2023/08/10 03:02:38;;;;;;;;;;;25.30;68.30;;;;;;5044718;28;43131;-91
2023/08/10 03:05:04;;;;;;;;;;;25.40;68.90;;;;;;5046590;28;42866;-83
2023/08/10 03:07:29;;;;;;;;;;;25.40;68.40;;;;;;5044936;28;42993;-90
2023/08/10 03:09:55;;;;;;;;;;;25.10;68.60;;;;;;5046076;28;44523;-91
2023/08/10 03:12:20;;;;;;;;;;;25.50;68.80;;;;;;5046559;28;42957;-82
2023/08/10 03:14:46;;;;;;;;;;;25.40;68.90;;;;;;5044988;28;43293;-91
2023/08/10 03:17:11;;;;;;;;;;;25.40;68.90;;;;;;5045538;28;42889;-83
2023/08/10 03:19:37;;;;;;;;;;;25.80;69.20;;;;;;5045991;28;43651;-84
2023/08/10 03:22:02;;;;;;;;;;;25.30;68.80;;;;;;5045449;28;42930;-90
2023/08/10 03:24:28;;;;;;;;;;;25.10;68.80;;;;;;5044739;28;43551;-90
2023/08/10 03:26:55;;;;;;;;;;;25.40;69.10;;;;;;5045984;28;42975;-94
2023/08/10 03:29:20;;;;;;;;;;;25.50;66.90;;;;;;5045187;28;43431;-81
2023/08/10 03:31:46;;;;;;;;;;;25.40;69.60;;;;;;5045377;28;42874;-79
2023/08/10 03:34:11;;;;;;;;;;;25.40;69.40;;;;;;5043805;28;43136;-78
2023/08/10 03:36:37;;;;;;;;;;;25.30;71.30;;;;;;5045029;28;42892;-85
2023/08/10 03:39:02;;;;;;;;;;;25.30;69.70;;;;;;5043914;28;43713;-82
2023/08/10 03:41:28;;;;;;;;;;;24.90;68.50;;;;;;5045325;28;43103;-82
2023/08/10 03:43:53;;;;;;;;;;;25.40;69.00;;;;;;5044248;28;43451;-86
2023/08/10 03:46:18;;;;;;;;;;;25.40;68.90;;;;;;5045020;28;42959;-81
2023/08/10 03:48:44;;;;;;;;;;;25.30;68.90;;;;;;5044826;28;43336;-78
2023/08/10 03:51:09;;;;;;;;;;;25.40;68.90;;;;;;5044614;28;43099;-85
2023/08/10 03:53:35;;;;;;;;;;;25.80;69.30;;;;;;5042772;28;43586;-87
2023/08/10 03:56:01;;;;;;;;;;;25.20;68.70;;;;;;5045033;28;42974;-86
2023/08/10 03:58:26;;;;;;;;;;;25.20;68.60;;;;;;5043741;28;42956;-84
2023/08/10 04:00:52;;;;;;;;;;;25.30;68.70;;;;;;5044280;28;42932;-87
2023/08/10 04:03:18;;;;;;;;;;;25.30;68.90;;;;;;5044297;28;43706;-85
2023/08/10 04:05:43;;;;;;;;;;;25.30;69.10;;;;;;5044817;28;42990;-85
2023/08/10 04:08:09;;;;;;;;;;;25.20;69.40;;;;;;5043823;28;43522;-79
2023/08/10 04:10:35;;;;;;;;;;;25.50;69.60;;;;;;5044600;28;42838;-83
2023/08/10 04:13:00;;;;;;;;;;;25.20;69.50;;;;;;5044339;28;42858;-85
2023/08/10 04:15:26;;;;;;;;;;;25.40;69.80;;;;;;5044503;28;42923;-86
2023/08/10 04:17:51;;;;;;;;;;;25.40;69.70;;;;;;5044684;28;43557;-84
2023/08/10 04:20:17;;;;;;;;;;;25.20;69.60;;;;;;5043789;28;43095;-81
2023/08/10 04:22:42;;;;;;;;;;;24.90;69.10;;;;;;5044416;28;43548;-86
2023/08/10 04:25:08;;;;;;;;;;;25.40;69.50;;;;;;5044797;28;42983;-86
2023/08/10 04:27:34;;;;;;;;;;;25.20;69.40;;;;;;5042971;28;43588;-85
2023/08/10 04:29:59;;;;;;;;;;;25.40;69.40;;;;;;5044064;28;42989;-83
2023/08/10 04:32:25;;;;;;;;;;;25.30;69.50;;;;;;5043278;28;43584;-86
2023/08/10 04:34:51;;;;;;;;;;;25.40;69.70;;;;;;5043634;28;43000;-83
2023/08/10 04:37:17;;;;;;;;;;;25.20;69.40;;;;;;5043530;28;43129;-80
2023/08/10 04:39:43;;;;;;;;;;;25.30;69.40;;;;;;5043174;28;43198;-86
2023/08/10 04:42:09;;;;;;;;;;;25.30;70.00;;;;;;5043341;28;43543;-83
2023/08/10 04:44:34;;;;;;;;;;;25.30;69.70;;;;;;5043691;28;43003;-85
2023/08/10 04:47:00;;;;;;;;;;;25.20;69.80;;;;;;5043418;28;43623;-86
2023/08/10 04:49:27;;;;;;;;;;;25.20;70.00;;;;;;5044368;28;43113;-79
2023/08/10 04:51:53;;;;;;;;;;;25.30;70.30;;;;;;5044349;28;43661;-85
2023/08/10 04:54:18;;;;;;;;;;;24.90;70.10;;;;;;5044383;28;42965;-87
2023/08/10 04:56:44;;;;;;;;;;;25.30;70.10;;;;;;5043761;28;43050;-81
2023/08/10 04:59:09;;;;;;;;;;;25.30;70.00;;;;;;5044054;28;42825;-84
2023/08/10 05:01:35;;;;;;;;;;;25.20;70.00;;;;;;5043408;28;43729;-84
2023/08/10 05:04:00;;;;;;;;;;;25.20;69.70;;;;;;5043601;28;42987;-86
2023/08/10 05:06:26;;;;;;;;;;;25.30;69.80;;;;;;5042274;28;42912;-80
2023/08/10 05:08:52;;;;;;;;;;;25.20;69.70;;;;;;5044370;28;42838;-84
2023/08/10 05:11:17;;;;;;;;;;;25.30;69.90;;;;;;5043606;28;43008;-79
2023/08/10 05:13:43;;;;;;;;;;;25.10;69.70;;;;;;5043097;28;42953;-88
2023/08/10 05:16:08;;;;;;;;;;;25.30;70.10;;;;;;5042274;28;43497;-87
2023/08/10 05:18:34;;;;;;;;;;;25.20;69.40;;;;;;5043792;28;43095;-88
2023/08/10 05:21:00;;;;;;;;;;;25.40;70.80;;;;;;5044209;28;44253;-87
2023/08/10 05:23:26;;;;;;;;;;;25.40;70.10;;;;;;5044094;28;42913;-86
2023/08/10 05:25:51;;;;;;;;;;;25.30;70.20;;;;;;5043528;28;43651;-80
2023/08/10 05:28:17;;;;;;;;;;;25.30;70.40;;;;;;5043217;28;42962;-85
2023/08/10 05:30:43;;;;;;;;;;;25.30;70.50;;;;;;5043495;28;43171;-86
2023/08/10 05:33:09;;;;;;;;;;;25.20;70.50;;;;;;5043888;28;43088;-80
2023/08/10 05:35:34;;;;;;;;;;;25.40;70.80;;;;;;5042785;28;43562;-85
2023/08/10 05:38:00;;;;;;;;;;;25.30;71.20;;;;;;5043646;28;43206;-83
2023/08/10 05:40:25;;;;;;;;;;;25.40;72.30;;;;;;5042318;28;43601;-84
2023/08/10 05:42:51;;;;;;;;;;;25.40;73.10;;;;;;5033448;28;42937;-83
2023/08/10 05:45:19;;;;;;;;;;;25.40;71.80;;;;;;5037809;28;43709;-84
2023/08/10 05:47:45;;;;;;;;;;;25.40;71.40;;;;;;5039560;28;42908;-85
2023/08/10 05:50:12;;;;;;;;;;;25.20;71.80;;;;;;5034497;28;43032;-85
2023/08/10 05:52:37;;;;;;;;;;;25.30;73.10;;;;;;5042336;28;43101;-85
2023/08/10 05:55:03;;;;;;;;;;;25.40;72.40;;;;;;5041347;28;42996;-81
2023/08/10 05:57:29;;;;;;;;;;;25.40;69.50;;;;;;5042942;28;42936;-80
2023/08/10 05:59:55;;;;;;;;;;;25.30;69.50;;;;;;5042262;28;43500;-82
2023/08/10 06:02:21;;;;;;;;;;;25.30;69.70;;;;;;5048198;28;43004;-81
2023/08/10 06:04:47;;;;;;;;;;;25.40;69.70;;;;;;5046949;28;42912;-82
2023/08/10 06:07:12;;;;;;;;;;;25.30;69.80;;;;;;5046730;28;43065;-84
2023/08/10 06:09:38;;;;;;;;;;;25.20;69.60;;;;;;5045928;28;43669;-85
2023/08/10 06:12:03;;;;;;;;;;;25.30;70.40;;;;;;5046020;28;42981;-83
2023/08/10 06:14:30;;;;;;;;;;;25.10;69.20;;;;;;5046011;28;43445;-84
2023/08/10 06:16:55;;;;;;;;;;;25.30;69.80;;;;;;5046788;28;43388;-80
2023/08/10 06:19:21;;;;;;;;;;;25.40;70.50;;;;;;5046544;28;42842;-80
2023/08/10 06:21:46;;;;;;;;;;;25.90;70.40;;;;;;5046560;28;42869;-85
2023/08/10 06:24:13;;;;;;;;;;;25.40;70.20;;;;;;5045816;28;43174;-84
2023/08/10 06:26:39;;;;;;;;;;;25.40;68.90;;;;;;5027436;28;42910;-83
2023/08/10 06:29:06;;;;;;;;;;;25.40;69.90;;;;;;5045928;28;43559;-83
2023/08/10 06:31:31;;;;;;;;;;;25.30;69.80;;;;;;5045710;28;43176;-81
2023/08/10 06:33:57;;;;;;;;;;;25.30;69.70;;;;;;5046591;28;42912;-81
2023/08/10 06:36:22;;;;;;;;;;;25.40;70.00;;;;;;5046427;28;43083;-82
2023/08/10 06:38:49;;;;;;;;;;;25.30;69.70;;;;;;5042267;28;43553;-82
2023/08/10 06:41:15;;;;;;;;;;;25.50;69.80;;;;;;5050493;28;43143;-82
2023/08/10 06:43:41;;;;;;;;;;;25.50;70.00;;;;;;5047747;28;43027;-84
2023/08/10 06:46:06;;;;;;;;;;;25.50;69.80;;;;;;5044435;28;42924;-83
2023/08/10 06:48:32;;;;;;;;;;;25.30;70.10;;;;;;5051313;28;43777;-82
2023/08/10 06:50:57;;;;;;;;;;;25.70;70.20;;;;;;5049163;28;43159;-82
2023/08/10 06:53:23;;;;;;;;;;;25.40;69.30;;;;;;5026684;28;44760;-81
2023/08/10 06:55:50;;;;;;;;;;;25.40;69.40;;;;;;5049501;28;43115;-83
2023/08/10 06:58:16;;;;;;;;;;;25.30;70.00;;;;;;5055102;28;42916;-83
2023/08/10 07:00:42;;;;;;;;;;;25.30;69.60;;;;;;5047381;28;42896;-83
2023/08/10 07:03:07;;;;;;;;;;;25.40;70.30;;;;;;5047767;28;44151;-84
2023/08/10 07:05:38;;;;;;;;;;;25.40;70.70;;;;;;5024926;28;43148;-84
2023/08/10 07:08:03;;;;;;;;;;;26.00;69.20;;;;;;5043462;28;43753;-82
2023/08/10 07:10:29;;;;;;;;;;;25.40;70.40;;;;;;5044759;28;43075;-82
2023/08/10 07:12:55;;;;;;;;;;;25.40;70.20;;;;;;5027040;28;44306;-82
2023/08/10 07:15:20;;;;;;;;;;;25.50;70.90;;;;;;5045679;28;43004;-81
2023/08/10 07:17:46;;;;;;;;;;;25.40;70.80;;;;;;5045232;28;43419;-84
2023/08/10 07:20:13;;;;;;;;;;;25.40;70.40;;;;;;5045712;28;42904;-84
2023/08/10 07:22:39;;;;;;;;;;;25.40;70.10;;;;;;5045669;28;43886;-85
2023/08/10 07:25:05;;;;;;;;;;;25.40;70.20;;;;;;5045865;28;43386;-82
2023/08/10 07:27:36;;;;;;;;;;;25.50;70.90;;;;;;5045323;28;43020;-82
2023/08/10 07:30:05;;;;;;;;;;;25.40;70.50;;;;;;5045375;28;42976;-83
2023/08/10 07:32:33;;;;;;;;;;;26.90;70.20;;;;;;5044245;28;43058;-82
2023/08/10 07:34:59;;;;;;;;;;;25.10;69.50;;;;;;5045620;28;42929;-83
2023/08/10 07:37:24;;;;;;;;;;;25.50;69.50;;;;;;5045367;28;43878;-81
2023/08/10 07:39:50;;;;;;;;;;;25.40;70.20;;;;;;5055256;28;42949;-83
2023/08/10 07:42:15;;;;;;;;;;;25.30;70.20;;;;;;5049052;28;43474;-83
2023/08/10 07:44:41;;;;;;;;;;;25.40;70.20;;;;;;5045468;28;42864;-82
2023/08/10 07:47:06;;;;;;;;;;;25.40;70.20;;;;;;5044935;28;42914;-81
2023/08/10 07:49:32;;;;;;;;;;;25.30;70.10;;;;;;5044447;28;43023;-86
2023/08/10 07:51:58;;;;;;;;;;;25.40;70.00;;;;;;5025977;28;45421;-86
2023/08/10 07:54:25;;;;;;;;;;;25.40;71.00;;;;;;5026395;28;42964;-88
2023/08/10 07:57:04;;;;;;;;;;;25.40;67.70;;;;;;5044826;28;42868;-86
2023/08/10 07:59:30;;;;;;;;;;;25.50;65.30;;;;;;5026328;28;42955;-85
2023/08/10 08:01:56;;;;;;;;;;;25.40;68.00;;;;;;5023653;28;44510;-85
2023/08/10 08:04:22;;;;;;;;;;;25.40;79.20;;;;;;5026774;28;43017;-84
2023/08/10 08:06:52;;;;;;;;;;;25.30;69.50;;;;;;5025343;28;43093;-84
2023/08/10 08:09:18;;;;;;;;;;;25.50;69.30;;;;;;5045023;28;42972;-85
2023/08/10 08:11:44;;;;;;;;;;;25.50;69.10;;;;;;5042895;28;43015;-85
2023/08/10 08:14:09;;;;;;;;;;;25.40;69.80;;;;;;5044656;28;42897;-84
2023/08/10 08:16:35;;;;;;;;;;;25.30;69.50;;;;;;5043350;28;43341;-85
2023/08/10 08:19:00;;;;;;;;;;;25.30;69.20;;;;;;5045091;28;43064;-84
2023/08/10 08:21:29;;;;;;;;;;;25.60;69.30;;;;;;5044489;28;43556;-84
2023/08/10 08:23:58;;;;;;;;;;;25.40;68.50;;;;;;5043984;28;43013;-85
2023/08/10 08:26:24;;;;;;;;;;;28.80;69.50;;;;;;5043538;28;43014;-85
2023/08/10 08:28:50;;;;;;;;;;;25.40;68.30;;;;;;5045574;28;42905;-84
2023/08/10 08:31:16;;;;;;;;;;;25.60;68.10;;;;;;5044237;28;43513;-83
2023/08/10 08:33:41;;;;;;;;;;;25.50;68.60;;;;;;5043635;28;43434;-84
2023/08/10 08:36:07;;;;;;;;;;;25.40;68.70;;;;;;5025334;28;43352;-84
2023/08/10 08:38:33;;;;;;;;;;;23.90;67.70;;;;;;5043524;28;43042;-85
2023/08/10 08:41:08;;;;;;;;;;;25.50;68.70;;;;;;5042505;28;43260;-84
2023/08/10 08:43:35;;;;;;;;;;;25.30;66.30;;;;;;5043378;28;43056;-83
2023/08/10 08:46:00;;;;;;;;;;;25.30;68.40;;;;;;5043810;28;43097;-84
2023/08/10 08:48:27;;;;;;;;;;;25.30;68.20;;;;;;5044282;28;42921;-85
2023/08/10 08:50:53;;;;;;;;;;;25.50;68.40;;;;;;5043826;28;43502;-84
2023/08/10 08:53:19;;;;;;;;;;;25.40;68.60;;;;;;5043332;28;42945;-85
2023/08/10 08:55:46;;;;;;;;;;;25.30;68.20;;;;;;5043525;28;43340;-84
2023/08/10 08:58:14;;;;;;;;;;;25.40;68.10;;;;;;5043295;28;43229;-87
2023/08/10 09:00:40;;;;;;;;;;;25.40;68.30;;;;;;5044100;28;42983;-84
2023/08/10 09:03:06;;;;;;;;;;;25.40;67.90;;;;;;5043724;28;42942;-85
2023/08/10 09:05:32;;;;;;;;;;;25.40;67.60;;;;;;5043448;28;42874;-85
2023/08/10 09:07:58;;;;;;;;;;;25.30;67.30;;;;;;5043465;28;43050;-83
2023/08/10 09:10:24;;;;;;;;;;;25.30;67.60;;;;;;5041958;28;42921;-85
2023/08/10 09:12:49;;;;;;;;;;;25.40;67.20;;;;;;5043597;28;43304;-85
2023/08/10 09:15:16;;;;;;;;;;;25.20;67.10;;;;;;5043511;28;43131;-85
2023/08/10 09:17:48;;;;;;;;;;;25.40;67.30;;;;;;5042436;28;42995;-84
2023/08/10 09:20:17;;;;;;;;;;;25.40;65.20;;;;;;5043732;28;43463;-85
2023/08/10 09:22:44;;;;;;;;;;;25.40;64.80;;;;;;5043564;28;42995;-84
2023/08/10 09:25:09;;;;;;;;;;;25.30;66.70;;;;;;5042608;28;43554;-85
2023/08/10 09:27:35;;;;;;;;;;;25.40;66.70;;;;;;5043143;28;42924;-84
2023/08/10 09:30:01;;;;;;;;;;;25.30;66.90;;;;;;5043715;28;43333;-85
2023/08/10 09:32:27;;;;;;;;;;;25.20;66.40;;;;;;5043154;28;42936;-84
2023/08/10 09:34:53;;;;;;;;;;;25.40;66.60;;;;;;5024519;28;44983;-86
2023/08/10 09:37:20;;;;;;;;;;;25.20;66.10;;;;;;5022566;28;42939;-84
2023/08/10 09:39:45;;;;;;;;;;;25.30;66.80;;;;;;5042575;28;44020;-85
2023/08/10 09:42:11;;;;;;;;;;;25.40;66.70;;;;;;5041613;28;43001;-84
2023/08/10 09:44:46;;;;;;;;;;;25.40;66.00;;;;;;5042513;28;43061;-83
2023/08/10 09:47:13;;;;;;;;;;;25.60;64.50;;;;;;5037091;28;43125;-81
2023/08/10 09:49:39;;;;;;;;;;;25.40;66.60;;;;;;5055028;28;43840;-83
2023/08/10 09:52:06;;;;;;;;;;;25.10;66.40;;;;;;5041027;28;43033;-82
2023/08/10 09:54:31;;;;;;;;;;;25.30;66.30;;;;;;5046494;28;43963;-80
2023/08/10 09:56:57;;;;;;;;;;;25.30;66.20;;;;;;5040286;28;43007;-79
2023/08/10 09:59:24;;;;;;;;;;;25.20;66.80;;;;;;5044387;28;43967;-79
2023/08/10 10:01:50;;;;;;;;;;;25.40;67.20;;;;;;5042931;28;43046;-79
2023/08/10 10:04:15;;;;;;;;;;;25.40;66.50;;;;;;5038234;28;43529;-80
2023/08/10 10:06:42;;;;;;;;;;;25.30;67.10;;;;;;5038363;28;43065;-79
2023/08/10 10:09:07;;;;;;;;;;;25.30;67.30;;;;;;5043498;28;42993;-78
2023/08/10 10:11:33;;;;;;;;;;;25.40;67.90;;;;;;5041998;28;43007;-79
2023/08/10 10:13:59;;;;;;;;;;;25.40;69.40;;;;;;5042732;28;42867;-79
2023/08/10 10:16:25;;;;;;;;;;;25.50;73.00;;;;;;5042679;28;42989;-79
2023/08/10 10:18:50;;;;;;;;;;;25.50;68.90;;;;;;5042727;28;42980;-78
2023/08/10 10:21:16;;;;;;;;;;;25.60;69.70;;;;;;5025393;28;43027;-79
2023/08/10 10:23:42;;;;;;;;;;;25.20;70.60;;;;;;5042131;28;43525;-80
2023/08/10 10:26:07;;;;;;;;;;;25.40;70.60;;;;;;5041129;28;43040;-80
2023/08/10 10:28:33;;;;;;;;;;;25.50;68.60;;;;;;5022910;28;45290;-79
2023/08/10 10:30:59;;;;;;;;;;;25.40;68.00;;;;;;5042619;28;43177;-81
2023/08/10 10:33:25;;;;;;;;;;;25.40;68.10;;;;;;5042925;28;42924;-77
2023/08/10 10:36:09;;;;;;;;;;;25.40;67.60;;;;;;5040597;28;43084;-79
2023/08/10 10:38:34;;;;;;;;;;;25.30;66.50;;;;;;5023236;28;44404;-80
2023/08/10 10:41:14;;;;;;;;;;;25.40;69.60;;;;;;5041870;28;42988;-80
2023/08/10 10:43:39;;;;;;;;;;;25.30;67.00;;;;;;5041581;28;44061;-79
2023/08/10 10:46:05;;;;;;;;;;;25.40;67.40;;;;;;5042451;28;42979;-80
2023/08/10 10:48:35;;;;;;;;;;;25.30;67.60;;;;;;5044155;28;42997;-79
2023/08/10 10:51:04;;;;;;;;;;;25.40;64.40;;;;;;5045606;28;42980;-80
2023/08/10 10:53:30;;;;;;;;;;;25.60;64.40;;;;;;5036709;28;42939;-79
2023/08/10 10:55:55;;;;;;;;;;;25.80;66.10;;;;;;5045564;28;43038;-79
2023/08/10 10:58:22;;;;;;;;;;;25.40;67.00;;;;;;5044023;28;43619;-79
2023/08/10 11:00:47;;;;;;;;;;;25.60;67.30;;;;;;5045379;28;42932;-79
2023/08/10 11:03:13;;;;;;;;;;;25.40;67.10;;;;;;5044982;28;42959;-81
2023/08/10 11:05:39;;;;;;;;;;;24.70;64.00;;;;;;5031262;28;43504;-80
2023/08/10 11:08:08;;;;;;;;;;;25.50;65.20;;;;;;5042874;28;44222;-80
2023/08/10 11:10:37;;;;;;;;;;;25.70;64.70;;;;;;5040403;28;43196;-84
2023/08/10 11:13:06;;;;;;;;;;;25.40;65.10;;;;;;5044697;28;44424;-82
2023/08/10 11:15:32;;;;;;;;;;;25.60;65.20;;;;;;5044675;28;43101;-80
2023/08/10 11:17:58;;;;;;;;;;;25.30;64.90;;;;;;5033967;28;43501;-80
2023/08/10 11:20:24;;;;;;;;;;;25.50;64.90;;;;;;5045344;28;42867;-81
2023/08/10 11:22:51;;;;;;;;;;;25.60;64.90;;;;;;5044453;28;44382;-79
2023/08/10 11:25:23;;;;;;;;;;;25.60;64.70;;;;;;5043760;28;43010;-77
2023/08/10 11:27:51;;;;;;;;;;;25.60;62.80;;;;;;5044270;28;43053;-79
2023/08/10 11:30:21;;;;;;;;;;;25.40;65.00;;;;;;5044891;28;42946;-79
2023/08/10 11:32:47;;;;;;;;;;;25.60;63.10;;;;;;5042795;28;43806;-79
2023/08/10 11:35:14;;;;;;;;;;;25.50;65.00;;;;;;5043774;28;43070;-76
2023/08/10 11:37:41;;;;;;;;;;;25.40;65.00;;;;;;5043807;28;42880;-79
2023/08/10 11:40:07;;;;;;;;;;;25.40;65.10;;;;;;5042942;28;43089;-79
2023/08/10 11:42:36;;;;;;;;;;;25.50;64.60;;;;;;5026938;28;43780;-79
2023/08/10 11:45:06;;;;;;;;;;;25.40;62.80;;;;;;5030066;28;43059;-80
2023/08/10 11:47:41;;;;;;;;;;;25.50;64.60;;;;;;5044732;28;43324;-78
2023/08/10 11:50:09;;;;;;;;;;;25.40;62.30;;;;;;5044612;28;43155;-79
2023/08/10 11:52:35;;;;;;;;;;;25.40;64.00;;;;;;5039641;28;42956;-79
2023/08/10 11:55:07;;;;;;;;;;;25.80;64.50;;;;;;5029126;28;43024;-81
2023/08/10 11:57:36;;;;;;;;;;;25.50;63.30;;;;;;5042875;28;44366;-80
2023/08/10 12:00:25;;;;;;;;;;;25.50;60.60;;;;;;5043192;28;42971;-79
2023/08/10 12:03:12;;;;;;;;;;;25.60;60.20;;;;;;5023194;28;44496;-80
2023/08/10 12:05:38;;;;;;;;;;;25.40;60.50;;;;;;5031705;28;42841;-79
2023/08/10 12:08:05;;;;;;;;;;;25.30;62.50;;;;;;5042028;28;43531;-79
2023/08/10 12:10:37;;;;;;;;;;;25.50;62.20;;;;;;5044491;28;43022;-78
2023/08/10 12:13:07;;;;;;;;;;;26.20;60.90;;;;;;5043542;28;44003;-86
2023/08/10 12:15:32;;;;;;;;;;;25.40;60.50;;;;;;5026270;28;43035;-81
2023/08/10 12:18:00;;;;;;;;;;;25.50;63.10;;;;;;5043350;28;43721;-80
2023/08/10 12:20:25;;;;;;;;;;;25.40;62.10;;;;;;5045065;28;43088;-79
2023/08/10 12:22:52;;;;;;;;;;;25.60;62.70;;;;;;5044344;28;43100;-79
2023/08/10 12:25:18;;;;;;;;;;;25.60;62.60;;;;;;5043597;28;42940;-81
2023/08/10 12:27:43;;;;;;;;;;;25.60;62.70;;;;;;5043556;28;43477;-79
2023/08/10 12:30:09;;;;;;;;;;;25.50;63.60;;;;;;5043961;28;42986;-80
2023/08/10 12:32:35;;;;;;;;;;;25.60;62.70;;;;;;5042539;28;43029;-77
2023/08/10 12:35:01;;;;;;;;;;;25.50;63.00;;;;;;5043686;28;43220;-79
2023/08/10 12:37:26;;;;;;;;;;;25.50;62.70;;;;;;5042195;28;43505;-83
2023/08/10 12:39:53;;;;;;;;;;;25.50;63.10;;;;;;5030591;28;43418;-82
2023/08/10 12:42:19;;;;;;;;;;;25.60;62.60;;;;;;5045219;28;44493;-78
2023/08/10 12:44:44;;;;;;;;;;;25.50;63.10;;;;;;5045965;28;43141;-78
2023/08/10 12:47:10;;;;;;;;;;;25.50;62.40;;;;;;5041274;28;42957;-82
2023/08/10 12:49:35;;;;;;;;;;;25.40;63.50;;;;;;5032294;28;43138;-79
2023/08/10 12:52:01;;;;;;;;;;;25.50;63.40;;;;;;5032639;28;42948;-78
2023/08/10 12:54:26;;;;;;;;;;;25.50;63.80;;;;;;5033626;28;43224;-78
2023/08/10 12:56:52;;;;;;;;;;;25.60;63.90;;;;;;5043544;28;42916;-79
2023/08/10 12:59:20;;;;;;;;;;;25.40;63.90;;;;;;5042563;28;42936;-82
2023/08/10 13:01:45;;;;;;;;;;;25.40;64.00;;;;;;5043135;28;43328;-87
2023/08/10 13:04:11;;;;;;;;;;;25.40;60.60;;;;;;5021067;28;43203;-85
2023/08/10 13:06:37;;;;;;;;;;;25.60;60.90;;;;;;5036096;28;43801;-83
2023/08/10 13:09:03;;;;;;;;;;;25.40;61.10;;;;;;5043662;28;43410;-80
2023/08/10 13:11:28;;;;;;;;;;;25.50;62.20;;;;;;5029924;28;44493;-80
2023/08/10 13:13:54;;;;;;;;;;;25.50;63.30;;;;;;5051856;28;43129;-84
2023/08/10 13:16:19;;;;;;;;;;;25.50;59.80;;;;;;5054373;28;43016;-80
2023/08/10 13:18:45;;;;;;;;;;;25.50;60.00;;;;;;5047909;28;43135;-82
2023/08/10 13:21:11;;;;;;;;;;;25.60;60.10;;;;;;5045377;28;42975;-86
2023/08/10 13:23:36;;;;;;;;;;;25.60;60.20;;;;;;5048415;28;42970;-83
2023/08/10 13:26:02;;;;;;;;;;;25.50;60.30;;;;;;5046374;28;44093;-84
2023/08/10 13:28:27;;;;;;;;;;;25.60;60.70;;;;;;5045987;28;43038;-84
2023/08/10 13:30:53;;;;;;;;;;;25.60;60.90;;;;;;5043416;28;42962;-81
2023/08/10 13:33:19;;;;;;;;;;;25.60;61.20;;;;;;5046017;28;43074;-82
2023/08/10 13:35:45;;;;;;;;;;;25.60;69.40;;;;;;5052306;28;42915;-81
2023/08/10 13:38:10;;;;;;;;;;;25.60;60.60;;;;;;5043495;28;43052;-83
2023/08/10 13:40:36;;;;;;;;;;;25.70;60.40;;;;;;5052615;28;43093;-81
2023/08/10 13:43:01;;;;;;;;;;;25.50;60.10;;;;;;5049541;28;42980;-84
2023/08/10 13:45:27;;;;;;;;;;;25.70;60.40;;;;;;5035018;28;43244;-80
2023/08/10 13:47:52;;;;;;;;;;;25.50;60.20;;;;;;5047563;28;42999;-83
2023/08/10 13:50:18;;;;;;;;;;;25.60;60.40;;;;;;5041543;28;43800;-82
2023/08/10 13:52:43;;;;;;;;;;;25.70;60.40;;;;;;5031794;28;42924;-83
2023/08/10 13:55:09;;;;;;;;;;;25.80;60.70;;;;;;5018441;28;43265;-81
2023/08/10 13:57:35;;;;;;;;;;;25.80;60.00;;;;;;5027916;28;43207;-80
2023/08/10 14:00:00;;;;;;;;;;;25.80;60.20;;;;;;5020908;28;43054;-80
2023/08/10 14:02:26;;;;;;;;;;;25.60;63.30;;;;;;5022739;28;43132;-83
2023/08/10 14:04:51;;;;;;;;;;;25.40;63.00;;;;;;5019874;28;43440;-81
2023/08/10 14:07:17;;;;;;;;;;;25.70;61.60;;;;;;5022580;28;42898;-80
2023/08/10 14:09:43;;;;;;;;;;;25.70;59.80;;;;;;5024146;28;43131;-81
2023/08/10 14:12:09;;;;;;;;;;;25.60;60.70;;;;;;5032423;28;42988;-81